Time;durP1;ratioP1;P1;durP2;ratioP2;P2;SDS_P1;SDS_P2;PMS_P1;PMS_P2;Temp;Humidity;BMP_temperature;BMP_pressure;BME280_temperature;BME280_humidity;BME280_pressure;Samples;Min_cycle;Max_cycle;Signal;HPM_P1;HPM_P2
2022/03/28 00:00:32;;;;;;;20.75;7.57;;;;;;;7.52;69.48;102688.50;5009242;28;20038;-60
2022/03/28 00:02:58;;;;;;;20.38;7.38;;;;;;;7.43;69.47;102680.19;5009609;28;20022;-61
2022/03/28 00:05:23;;;;;;;24.65;7.57;;;;;;;7.43;69.79;102685.38;5010047;28;20040;-60
2022/03/28 00:07:48;;;;;;;21.08;7.75;;;;;;;7.41;70.37;102682.00;5029399;28;20029;-59
2022/03/28 00:10:14;;;;;;;20.35;7.47;;;;;;;7.38;70.15;102681.28;5027938;28;20028;-62
2022/03/28 00:12:40;;;;;;;24.30;7.13;;;;;;;7.29;70.54;102669.59;5028894;28;20354;-59
2022/03/28 00:15:07;;;;;;;20.92;7.80;;;;;;;7.28;70.98;102675.63;5029138;28;20519;-60
2022/03/28 00:17:33;;;;;;;20.55;7.25;;;;;;;7.29;70.89;102667.00;5011938;28;20029;-60
2022/03/28 00:19:59;;;;;;;19.98;7.10;;;;;;;7.30;70.38;102660.94;5028640;28;20057;-61
2022/03/28 00:22:25;;;;;;;22.33;8.68;;;;;;;7.25;71.00;102662.00;5012551;28;20029;-60
2022/03/28 00:24:50;;;;;;;19.20;8.43;;;;;;;7.12;71.82;102653.91;5011850;28;20366;-60
2022/03/28 00:27:17;;;;;;;23.08;7.75;;;;;;;7.14;71.18;102646.94;5027547;28;20037;-60
2022/03/28 00:29:43;;;;;;;19.80;7.47;;;;;;;7.15;71.76;102648.59;4991927;28;20036;-59
2022/03/28 00:32:09;;;;;;;21.95;7.72;;;;;;;7.08;71.35;102640.25;5008136;28;20417;-60
2022/03/28 00:34:34;;;;;;;21.55;7.53;;;;;;;7.08;71.16;102642.84;5008493;28;20033;-61
2022/03/28 00:36:59;;;;;;;20.75;7.68;;;;;;;6.96;71.69;102637.31;5009303;28;20501;-60
2022/03/28 00:39:25;;;;;;;21.77;7.65;;;;;;;6.88;71.83;102635.88;5009713;28;20501;-61
2022/03/28 00:41:51;;;;;;;20.10;7.72;;;;;;;6.95;71.94;102635.63;5028962;28;20021;-60
2022/03/28 00:44:18;;;;;;;19.88;7.72;;;;;;;6.88;71.86;102624.69;5026217;28;20039;-61
2022/03/28 00:46:44;;;;;;;21.85;7.82;;;;;;;6.92;71.89;102626.25;5028517;28;20026;-63
2022/03/28 00:49:09;;;;;;;20.52;8.40;;;;;;;6.83;72.62;102617.13;5015131;28;20444;-59
2022/03/28 00:51:36;;;;;;;22.77;7.75;;;;;;;6.90;72.74;102618.56;5027803;28;20064;-59
2022/03/28 00:54:04;;;;;;;19.52;7.85;;;;;;;6.89;72.56;102606.59;5011172;28;20069;-60
2022/03/28 00:56:30;;;;;;;21.93;7.77;;;;;;;6.88;72.40;102610.06;5028105;28;20067;-59
2022/03/28 00:58:55;;;;;;;22.27;8.30;;;;;;;6.80;72.90;102612.06;5027776;28;20430;-60
2022/03/28 01:01:21;;;;;;;24.40;7.90;;;;;;;6.77;72.86;102604.47;5009880;28;20465;-59
2022/03/28 01:03:46;;;;;;;22.80;8.40;;;;;;;6.78;73.09;102603.56;5003318;28;20029;-59
2022/03/28 01:06:12;;;;;;;19.38;7.68;;;;;;;6.78;73.31;102598.41;5017601;28;20037;-61
2022/03/28 01:08:38;;;;;;;21.55;7.80;;;;;;;6.78;72.53;102595.81;5028000;28;20029;-59
2022/03/28 01:11:06;;;;;;;23.88;8.25;;;;;;;6.74;73.10;102596.81;5010420;28;20040;-61
2022/03/28 01:13:33;;;;;;;22.17;8.25;;;;;;;6.71;73.98;102596.97;5017884;28;20848;-59
2022/03/28 01:15:59;;;;;;;20.40;7.65;;;;;;;6.67;73.30;102602.28;5010072;28;20420;-60
2022/03/28 01:18:25;;;;;;;19.30;8.10;;;;;;;6.54;73.73;102589.00;5025991;28;20037;-64
2022/03/28 01:20:57;;;;;;;19.13;8.15;;;;;;;6.54;74.26;102589.00;5027392;28;20045;-60
2022/03/28 01:23:22;;;;;;;22.30;8.77;;;;;;;6.46;74.82;102575.53;5014675;28;20030;-59
2022/03/28 01:25:51;;;;;;;24.10;8.57;;;;;;;6.37;75.54;102577.56;5008310;28;20033;-61
2022/03/28 01:28:16;;;;;;;;;;;;;;;6.53;73.55;102587.28;5023415;28;20025;-59
2022/03/28 01:30:42;;;;;;;23.60;8.27;;;;;;;6.29;75.02;102579.56;5013966;28;19917;-64
2022/03/28 01:33:07;;;;;;;27.20;8.68;;;;;;;6.23;75.75;102584.09;5008103;28;20056;-60
2022/03/28 01:35:32;;;;;;;22.58;8.07;;;;;;;6.17;76.26;102582.56;5007123;28;20363;-59
2022/03/28 01:37:59;;;;;;;23.45;7.93;;;;;;;6.17;76.44;102592.88;4995120;28;20037;-60
2022/03/28 01:40:24;;;;;;;22.55;7.53;;;;;;;6.10;76.47;102583.69;5015467;28;20040;-59
2022/03/28 01:42:50;;;;;;;23.20;7.65;;;;;;;5.99;76.95;102580.63;5010557;28;20021;-63
2022/03/28 01:45:18;;;;;;;20.10;7.50;;;;;;;6.01;76.86;102578.84;5026754;28;20029;-60
2022/03/28 01:47:43;;;;;;;24.77;7.90;;;;;;;5.95;76.52;102571.31;5027955;28;20029;-60
2022/03/28 01:50:09;;;;;;;20.75;7.72;;;;;;;5.97;76.80;102567.81;5026483;28;20033;-64
2022/03/28 01:52:34;;;;;;;20.20;7.38;;;;;;;5.91;77.54;102569.69;5026679;28;20432;-63
2022/03/28 01:54:59;;;;;;;24.40;8.10;;;;;;;5.89;77.79;102558.63;5018507;28;20141;-59
2022/03/28 01:57:25;;;;;;;22.33;7.70;;;;;;;5.88;77.93;102562.09;5026881;28;20381;-60
2022/03/28 01:59:50;;;;;;;25.80;7.90;;;;;;;5.76;77.56;102548.75;5020586;28;20474;-60
2022/03/28 02:02:16;;;;;;;23.05;7.85;;;;;;;5.82;77.99;102558.84;5023346;28;20026;-59
2022/03/28 02:04:41;;;;;;;19.25;7.38;;;;;;;5.74;77.41;102553.13;5008715;28;20380;-59
2022/03/28 02:07:06;;;;;;;21.27;7.80;;;;;;;5.69;78.06;102547.28;5026651;28;20136;-60
2022/03/28 02:09:31;;;;;;;21.90;7.55;;;;;;;5.63;77.88;102544.91;5026514;28;20040;-60
2022/03/28 02:11:57;;;;;;;21.25;8.25;;;;;;;5.62;78.22;102550.94;5026834;28;20021;-60
2022/03/28 02:14:22;;;;;;;21.27;7.97;;;;;;;5.59;78.05;102546.72;5026131;28;20052;-61
2022/03/28 02:16:47;;;;;;;24.65;8.27;;;;;;;5.58;78.10;102549.38;5026944;28;20380;-62
2022/03/28 02:19:13;;;;;;;21.52;7.43;;;;;;;5.54;78.37;102552.91;5008015;28;20462;-60
2022/03/28 02:21:38;;;;;;;22.27;8.13;;;;;;;5.56;78.46;102539.13;5008639;28;20434;-61
2022/03/28 02:24:04;;;;;;;25.73;7.88;;;;;;;5.50;78.88;102541.88;5024244;28;20454;-59
2022/03/28 02:26:29;;;;;;;26.40;7.78;;;;;;;5.42;79.36;102532.75;5010453;28;20041;-59
2022/03/28 02:28:54;;;;;;;22.17;7.63;;;;;;;5.39;79.10;102532.81;5012900;28;20030;-61
2022/03/28 02:31:20;;;;;;;28.52;8.30;;;;;;;5.40;79.05;102534.53;4988646;28;20478;-61
2022/03/28 02:33:45;;;;;;;23.33;7.45;;;;;;;5.33;80.05;102529.59;5006635;28;20030;-59
2022/03/28 02:36:11;;;;;;;24.85;7.63;;;;;;;5.25;80.03;102516.09;4993799;28;20088;-60
2022/03/28 02:38:36;;;;;;;25.52;8.02;;;;;;;5.27;80.18;102524.59;5008326;28;20026;-60
2022/03/28 02:41:02;;;;;;;22.80;7.88;;;;;;;5.23;79.99;102525.63;5013621;28;20041;-59
2022/03/28 02:43:28;;;;;;;19.85;7.07;;;;;;;5.30;79.42;102524.53;5006515;28;20033;-60
2022/03/28 02:45:53;;;;;;;26.98;8.40;;;;;;;5.21;80.04;102511.94;5007910;28;20389;-62
2022/03/28 02:48:19;;;;;;;22.83;7.25;;;;;;;5.30;79.31;102514.22;5006255;28;20044;-60
2022/03/28 02:50:45;;;;;;;22.40;6.88;;;;;;;5.20;79.43;102507.69;5010695;28;20025;-60
2022/03/28 02:53:11;;;;;;;24.80;7.47;;;;;;;5.12;79.76;102494.25;5025876;28;20063;-62
2022/03/28 02:55:37;;;;;;;24.75;7.60;;;;;;;5.10;79.69;102496.00;5019020;28;20076;-60
2022/03/28 02:58:02;;;;;;;24.80;7.85;;;;;;;5.12;79.77;102493.41;5006499;28;20482;-61
2022/03/28 03:00:27;;;;;;;23.40;7.70;;;;;;;5.00;80.09;102489.50;5005862;28;20057;-59
2022/03/28 03:02:53;;;;;;;22.30;6.65;;;;;;;5.02;80.01;102492.84;5005670;28;20022;-59
2022/03/28 03:05:19;;;;;;;24.33;6.88;;;;;;;4.97;80.53;102499.88;5006320;28;20137;-62
2022/03/28 03:07:48;;;;;;;23.40;7.70;;;;;;;5.02;80.61;102492.84;5006612;28;20525;-59
2022/03/28 03:10:14;;;;;;;23.70;7.88;;;;;;;5.08;80.43;102505.50;5006328;28;20034;-60
2022/03/28 03:12:39;;;;;;;25.98;7.82;;;;;;;5.09;80.50;102496.06;5006906;28;20465;-62
2022/03/28 03:15:05;;;;;;;25.35;7.95;;;;;;;5.12;80.66;102498.56;5006588;28;20596;-63
2022/03/28 03:17:31;;;;;;;24.15;7.82;;;;;;;5.12;80.70;102494.25;5005793;28;20033;-60
2022/03/28 03:19:56;;;;;;;21.08;6.90;;;;;;;5.07;80.49;102490.97;5006500;28;20021;-60
2022/03/28 03:22:21;;;;;;;20.95;7.25;;;;;;;5.15;80.55;102494.13;5006094;28;20038;-60
2022/03/28 03:24:47;;;;;;;20.65;6.97;;;;;;;5.14;80.31;102486.47;5011828;28;20045;-59
2022/03/28 03:27:13;;;;;;;25.92;7.45;;;;;;;5.13;80.17;102485.63;5018924;28;20079;-59
2022/03/28 03:29:39;;;;;;;27.17;8.40;;;;;;;5.04;80.27;102480.78;5018942;28;20105;-60
2022/03/28 03:32:05;;;;;;;21.02;7.25;;;;;;;5.06;79.96;102473.88;5015783;28;20025;-63
2022/03/28 03:34:31;;;;;;;23.45;7.68;;;;;;;5.04;79.82;102476.47;5025094;28;20033;-61
2022/03/28 03:36:57;;;;;;;24.38;7.40;;;;;;;4.99;80.32;102472.41;5026081;28;20049;-60
2022/03/28 03:39:22;;;;;;;21.33;7.38;;;;;;;4.97;79.95;102476.72;5010259;28;20057;-60
2022/03/28 03:41:49;;;;;;;27.58;7.72;;;;;;;4.98;80.17;102470.69;4988045;28;20021;-62
2022/03/28 03:44:14;;;;;;;21.38;7.70;;;;;;;5.04;79.86;102470.50;5020012;28;20029;-60
2022/03/28 03:46:39;;;;;;;22.05;7.05;;;;;;;4.90;80.86;102467.53;5011528;28;20512;-63
2022/03/28 03:49:05;;;;;;;23.33;7.88;;;;;;;4.95;80.62;102470.81;5005291;28;20470;-60
2022/03/28 03:51:30;;;;;;;23.10;7.10;;;;;;;4.90;80.45;102458.09;5004386;28;20018;-59
2022/03/28 03:53:55;;;;;;;21.83;7.57;;;;;;;4.93;80.18;102462.28;5006363;28;20422;-63
2022/03/28 03:56:21;;;;;;;17.67;6.57;;;;;;;4.85;80.40;102454.81;5007981;28;20117;-61
2022/03/28 03:58:46;;;;;;;25.90;7.70;;;;;;;4.71;80.93;102450.13;5011635;28;20034;-60
2022/03/28 04:01:11;;;;;;;26.85;8.45;;;;;;;4.67;81.17;102445.97;5011631;28;20180;-63
2022/03/28 04:03:37;;;;;;;21.13;7.47;;;;;;;4.66;81.30;102444.28;5003986;28;20037;-60
2022/03/28 04:06:02;;;;;;;23.83;8.18;;;;;;;4.66;80.73;102453.72;5004524;28;20036;-59
2022/03/28 04:08:28;;;;;;;25.42;7.65;;;;;;;4.49;81.19;102441.38;4986070;28;20370;-59
2022/03/28 04:10:57;;;;;;;25.75;8.15;;;;;;;4.51;81.64;102452.44;5005088;28;20055;-59
2022/03/28 04:13:22;;;;;;;;;;;;;;;4.70;80.03;102456.16;5012235;28;20157;-61
2022/03/28 04:15:48;;;;;;;29.20;8.40;;;;;;;4.56;81.16;102454.88;5008153;28;20361;-61
2022/03/28 04:18:14;;;;;;;26.33;8.10;;;;;;;4.54;81.54;102442.09;5005199;28;20452;-61
2022/03/28 04:20:39;;;;;;;23.77;7.75;;;;;;;4.53;81.57;102443.81;5014947;28;20361;-61
2022/03/28 04:23:05;;;;;;;21.42;7.53;;;;;;;4.59;81.36;102450.50;5009727;28;20030;-61
2022/03/28 04:25:30;;;;;;;25.48;8.63;;;;;;;4.54;81.60;102439.53;5019476;28;20057;-61
2022/03/28 04:27:56;;;;;;;24.65;8.57;;;;;;;4.57;82.29;102444.53;5026924;28;20073;-62
2022/03/28 04:30:23;;;;;;;23.88;8.48;;;;;;;4.52;81.83;102436.13;4993849;28;20456;-61
2022/03/28 04:32:48;;;;;;;25.25;8.25;;;;;;;4.57;81.91;102431.69;5029180;28;20172;-61
2022/03/28 04:35:14;;;;;;;24.70;8.43;;;;;;;4.57;81.44;102434.28;5014899;28;20545;-61
2022/03/28 04:37:41;;;;;;;23.92;8.30;;;;;;;4.58;81.49;102430.81;5025089;28;20041;-61
2022/03/28 04:40:10;;;;;;;24.52;8.68;;;;;;;4.55;81.79;102430.91;5023974;28;20033;-63
2022/03/28 04:42:36;;;;;;;24.52;9.15;;;;;;;4.50;82.51;102428.47;5008369;28;20500;-61
2022/03/28 04:45:02;;;;;;;23.15;8.52;;;;;;;4.52;82.36;102436.13;5000538;28;20100;-61
2022/03/28 04:47:29;;;;;;;24.67;8.73;;;;;;;4.60;81.56;102435.91;5028775;28;20123;-62
2022/03/28 04:49:55;;;;;;;24.02;9.10;;;;;;;4.49;82.28;102431.94;5014189;28;20022;-61
2022/03/28 04:52:20;;;;;;;27.48;9.38;;;;;;;4.50;82.51;102433.63;5007631;28;20105;-63
2022/03/28 04:54:45;;;;;;;28.45;9.43;;;;;;;4.50;82.75;102437.91;5007707;28;20173;-62
2022/03/28 04:57:11;;;;;;;26.25;9.02;;;;;;;4.51;82.54;102434.47;4989476;28;20064;-60
2022/03/28 04:59:36;;;;;;;23.58;9.18;;;;;;;4.53;82.17;102427.56;5008416;28;20030;-60
2022/03/28 05:02:01;;;;;;;23.65;8.85;;;;;;;4.48;82.47;102424.28;5014221;28;20104;-59
2022/03/28 05:04:27;;;;;;;20.40;9.10;;;;;;;4.47;82.55;102430.28;5027550;28;20053;-59
2022/03/28 05:06:52;;;;;;;23.15;9.48;;;;;;;4.51;82.13;102430.16;5010129;28;20496;-59
2022/03/28 05:09:18;;;;;;;25.23;9.60;;;;;;;4.42;82.36;102429.63;5016697;28;20037;-59
2022/03/28 05:11:44;;;;;;;22.60;8.75;;;;;;;4.40;82.61;102421.09;5021745;28;20087;-58
2022/03/28 05:14:10;;;;;;;24.23;9.32;;;;;;;4.41;82.81;102423.59;5005744;28;20160;-62
2022/03/28 05:16:36;;;;;;;28.38;10.13;;;;;;;4.41;82.71;102422.78;5010106;28;20029;-63
2022/03/28 05:19:01;;;;;;;24.10;10.00;;;;;;;4.39;82.71;102439.97;5008100;28;20037;-60
2022/03/28 05:21:26;;;;;;;26.65;9.57;;;;;;;4.40;82.91;102457.06;5019472;28;20029;-59
2022/03/28 05:23:52;;;;;;;21.65;9.73;;;;;;;4.40;82.73;102442.47;5004442;28;20029;-66
2022/03/28 05:26:17;;;;;;;26.77;9.52;;;;;;;4.38;82.70;102448.56;5007557;28;20032;-59
2022/03/28 05:28:42;;;;;;;24.17;10.25;;;;;;;4.35;83.29;102438.38;5014598;28;20076;-59
2022/03/28 05:31:08;;;;;;;23.75;9.45;;;;;;;4.40;82.92;102431.38;5026716;28;20036;-59
2022/03/28 05:33:33;;;;;;;27.17;9.82;;;;;;;4.42;82.48;102429.63;5014618;28;20034;-60
2022/03/28 05:35:59;;;;;;;21.58;10.07;;;;;;;4.33;81.85;102409.34;5008555;28;20426;-59
2022/03/28 05:38:25;;;;;;;24.75;9.20;;;;;;;4.15;82.52;102406.41;5007149;28;20371;-60
2022/03/28 05:40:50;;;;;;;23.90;8.93;;;;;;;4.14;82.95;102417.59;5019629;28;20033;-61
2022/03/28 05:43:16;;;;;;;24.30;10.45;;;;;;;4.04;83.59;102408.47;5009306;28;20030;-65
2022/03/28 05:45:42;;;;;;;24.10;9.70;;;;;;;3.96;83.71;102415.56;5010165;28;20021;-62
2022/03/28 05:48:07;;;;;;;24.13;9.73;;;;;;;3.99;83.70;102405.19;5015384;28;20051;-62
2022/03/28 05:50:33;;;;;;;22.55;9.20;;;;;;;3.97;83.74;102412.09;5008951;28;20099;-62
2022/03/28 05:52:58;;;;;;;26.42;10.10;;;;;;;3.95;84.25;102418.97;5027265;28;20021;-59
2022/03/28 05:55:23;;;;;;;26.05;10.23;;;;;;;4.00;83.82;102412.81;5009806;28;20598;-59
2022/03/28 05:57:49;;;;;;;23.88;10.32;;;;;;;3.97;83.41;102404.41;5006866;28;20046;-64
2022/03/28 06:00:15;;;;;;;26.65;10.68;;;;;;;3.92;83.55;102416.50;5017389;28;20026;-59
2022/03/28 06:02:41;;;;;;;26.05;9.60;;;;;;;3.89;84.55;102411.44;5007915;28;20038;-64
2022/03/28 06:05:07;;;;;;;22.17;10.85;;;;;;;3.88;85.14;102417.47;5006640;28;20063;-60
2022/03/28 06:07:33;;;;;;;25.25;10.05;;;;;;;3.96;85.36;102415.56;5007021;28;20064;-61
2022/03/28 06:09:59;;;;;;;24.02;11.52;;;;;;;3.88;85.51;102408.03;5006414;28;20359;-59
2022/03/28 06:12:24;;;;;;;28.50;11.18;;;;;;;3.86;85.58;102399.56;5006670;28;20478;-60
2022/03/28 06:14:49;;;;;;;27.77;11.45;;;;;;;3.96;86.03;102410.41;4988866;28;20496;-59
2022/03/28 06:17:25;;;;;;;23.77;10.63;;;;;;;3.96;86.17;102405.28;5006502;28;20030;-59
2022/03/28 06:19:52;;;;;;;28.13;11.77;;;;;;;3.91;86.56;102407.13;5007111;28;20033;-59
2022/03/28 06:22:17;;;;;;;25.52;11.23;;;;;;;4.00;86.41;102407.69;5009431;28;20029;-59
2022/03/28 06:24:44;;;;;;;28.15;11.35;;;;;;;3.98;86.48;102413.78;5022894;28;20034;-60
2022/03/28 06:27:10;;;;;;;25.35;11.40;;;;;;;3.98;86.48;102409.47;5025874;28;20053;-61
2022/03/28 06:29:35;;;;;;;27.40;12.20;;;;;;;4.06;86.44;102406.69;5026440;28;20029;-62
2022/03/28 06:32:01;;;;;;;26.80;11.25;;;;;;;4.07;86.33;102403.25;5013039;28;20584;-60
2022/03/28 06:34:26;;;;;;;24.08;10.52;;;;;;;4.09;86.55;102411.75;4999092;28;20029;-61
2022/03/28 06:36:51;;;;;;;24.23;11.70;;;;;;;4.15;86.42;102411.56;5020663;28;20399;-66
2022/03/28 06:39:17;;;;;;;25.20;11.40;;;;;;;4.17;86.41;102404.63;5005837;28;20542;-60
2022/03/28 06:41:42;;;;;;;25.52;11.52;;;;;;;4.26;85.70;102399.25;5017443;28;20063;-59
2022/03/28 06:44:11;;;;;;;24.63;10.75;;;;;;;4.31;85.66;102405.97;5026548;28;20100;-68
2022/03/28 06:46:40;;;;;;;24.52;11.43;;;;;;;4.29;86.36;102398.28;5026193;28;20052;-63
2022/03/28 06:49:06;;;;;;;26.20;11.77;;;;;;;4.31;85.87;102395.72;5026463;28;20401;-63
2022/03/28 06:51:33;;;;;;;25.27;11.70;;;;;;;4.38;85.85;102397.19;5023660;28;20520;-59
2022/03/28 06:53:58;;;;;;;25.40;11.90;;;;;;;4.44;85.83;102404.72;5019589;28;20024;-59
2022/03/28 06:56:23;;;;;;;22.75;11.82;;;;;;;4.52;85.67;102395.03;5023855;28;20041;-60
2022/03/28 06:58:49;;;;;;;25.23;12.50;;;;;;;4.66;85.04;102398.03;5007754;28;20230;-59
2022/03/28 07:01:14;;;;;;;27.10;11.88;;;;;;;4.73;84.79;102390.94;5024532;28;20064;-63
2022/03/28 07:03:39;;;;;;;21.83;11.98;;;;;;;4.77;85.26;102389.97;5006240;28;20061;-60
2022/03/28 07:06:05;;;;;;;25.05;12.75;;;;;;;4.80;85.39;102395.84;5005616;28;20045;-59
2022/03/28 07:08:30;;;;;;;24.55;12.90;;;;;;;4.83;85.82;102381.22;5005981;28;20032;-59
2022/03/28 07:10:58;;;;;;;26.02;12.68;;;;;;;4.87;85.55;102385.34;5012733;28;20034;-60
2022/03/28 07:13:23;;;;;;;25.83;13.40;;;;;;;4.94;85.81;102392.00;5025608;28;20489;-60
2022/03/28 07:15:48;;;;;;;23.15;13.23;;;;;;;4.98;85.51;102385.84;5006382;28;20041;-61
2022/03/28 07:18:14;;;;;;;24.67;12.95;;;;;;;5.07;85.85;102388.13;5010398;28;20121;-59
2022/03/28 07:20:40;;;;;;;26.33;13.55;;;;;;;5.06;85.16;102381.28;5004429;28;20037;-60
2022/03/28 07:23:06;;;;;;;22.92;13.60;;;;;;;5.19;85.49;102377.41;5017111;28;20032;-63
2022/03/28 07:25:32;;;;;;;25.15;13.52;;;;;;;5.25;84.98;102387.50;5025219;28;20025;-59
2022/03/28 07:27:58;;;;;;;27.75;14.27;;;;;;;5.30;85.11;102375.31;5004910;28;20060;-62
2022/03/28 07:30:24;;;;;;;25.58;13.48;;;;;;;5.35;84.35;102376.91;5007674;28;20462;-61
2022/03/28 07:32:52;;;;;;;24.85;13.88;;;;;;;5.44;84.42;102371.41;5021441;28;20026;-63
2022/03/28 07:35:21;;;;;;;28.30;14.05;;;;;;;5.51;84.31;102376.31;5011200;28;20068;-59
2022/03/28 07:37:47;;;;;;;28.27;15.05;;;;;;;5.61;84.78;102374.22;5010319;28;20029;-66
2022/03/28 07:40:12;;;;;;;26.48;14.00;;;;;;;5.62;84.32;102368.19;5010870;28;20373;-60
2022/03/28 07:42:40;;;;;;;28.13;14.93;;;;;;;5.73;84.40;102370.34;5013105;28;20040;-61
2022/03/28 07:45:08;;;;;;;27.38;14.63;;;;;;;5.82;84.78;102368.28;5011944;28;20034;-63
2022/03/28 07:47:34;;;;;;;27.00;14.55;;;;;;;5.83;84.09;102364.81;5007105;28;20133;-63
2022/03/28 07:50:02;;;;;;;26.10;14.95;;;;;;;5.98;84.39;102363.47;5014795;28;20022;-61
2022/03/28 07:52:27;;;;;;;26.45;14.98;;;;;;;6.10;83.82;102352.69;5016382;28;20076;-60
2022/03/28 07:54:53;;;;;;;26.98;14.80;;;;;;;6.14;83.13;102356.00;4996885;28;20381;-60
2022/03/28 07:57:19;;;;;;;28.30;16.40;;;;;;;6.22;83.14;102350.53;5016150;28;20386;-60
2022/03/28 07:59:46;;;;;;;25.05;14.98;;;;;;;6.23;83.18;102342.75;5016060;28;20041;-60
2022/03/28 08:02:12;;;;;;;28.10;15.63;;;;;;;6.37;82.77;102339.63;5013124;28;20026;-60
2022/03/28 08:04:38;;;;;;;28.58;15.45;;;;;;;6.46;82.57;102343.56;5007780;28;20048;-60
2022/03/28 08:07:05;;;;;;;25.58;15.57;;;;;;;6.50;82.41;102339.97;5024557;28;20029;-63
2022/03/28 08:09:31;;;;;;;28.50;15.68;;;;;;;6.59;83.02;102340.41;4991634;28;20065;-62
2022/03/28 08:11:57;;;;;;;28.45;15.82;;;;;;;6.69;82.13;102335.75;5014226;28;20452;-60
2022/03/28 08:14:23;;;;;;;27.38;15.73;;;;;;;6.72;81.94;102340.78;5022559;28;20029;-64
2022/03/28 08:16:49;;;;;;;27.15;14.88;;;;;;;6.77;81.53;102333.69;5009681;28;20044;-61
2022/03/28 08:19:14;;;;;;;28.23;16.58;;;;;;;6.83;80.92;102338.59;5009138;28;20032;-63
2022/03/28 08:21:40;;;;;;;26.10;15.00;;;;;;;6.94;80.92;102340.75;5009853;28;20109;-59
2022/03/28 08:24:05;;;;;;;26.17;15.30;;;;;;;6.96;81.69;102343.25;5019968;28;20113;-60
2022/03/28 08:26:31;;;;;;;25.52;15.52;;;;;;;7.12;82.18;102339.94;5010475;28;20643;-60
2022/03/28 08:28:57;;;;;;;30.77;15.25;;;;;;;7.19;80.97;102336.19;5026411;28;20029;-61
2022/03/28 08:31:22;;;;;;;26.40;14.68;;;;;;;7.16;80.30;102336.31;5010266;28;20486;-64
2022/03/28 08:33:47;;;;;;;27.05;15.85;;;;;;;7.25;81.29;102335.09;4997207;28;20036;-62
2022/03/28 08:36:12;;;;;;;26.95;15.52;;;;;;;7.39;81.24;102332.72;5014866;28;20072;-60
2022/03/28 08:38:39;;;;;;;26.95;16.05;;;;;;;7.40;81.02;102318.94;5016771;28;20060;-67
2022/03/28 08:41:06;;;;;;;27.55;16.73;;;;;;;7.54;81.17;102322.66;5015073;28;20500;-60
2022/03/28 08:43:32;;;;;;;24.58;15.57;;;;;;;7.49;80.17;102322.84;5016124;28;20032;-60
2022/03/28 08:46:00;;;;;;;28.65;16.52;;;;;;;7.64;80.87;102331.66;5015626;28;20495;-62
2022/03/28 08:48:27;;;;;;;29.48;16.92;;;;;;;7.67;80.43;102316.00;4995719;28;20029;-61
2022/03/28 08:50:54;;;;;;;29.05;16.10;;;;;;;7.82;80.88;102319.66;5014335;28;20033;-63
2022/03/28 08:53:20;;;;;;;26.75;16.38;;;;;;;7.90;80.60;102318.38;5012963;28;20032;-61
2022/03/28 08:55:46;;;;;;;28.05;17.55;;;;;;;8.05;79.85;102323.75;5027960;28;20045;-61
2022/03/28 08:58:12;;;;;;;28.73;17.17;;;;;;;8.17;79.12;102320.59;5016168;28;20424;-64
2022/03/28 09:00:38;;;;;;;25.90;16.98;;;;;;;8.25;79.68;102318.47;5013745;28;20718;-62
2022/03/28 09:03:04;;;;;;;30.00;17.88;;;;;;;8.37;80.35;102323.09;5013545;28;20032;-60
2022/03/28 09:05:35;;;;;;;28.27;17.63;;;;;;;8.48;79.29;102325.97;5015736;28;20033;-61
2022/03/28 09:08:02;;;;;;;28.15;17.85;;;;;;;8.54;79.36;102329.16;4988036;28;20502;-61
2022/03/28 09:10:33;;;;;;;30.25;17.45;;;;;;;8.50;78.02;102329.34;5014452;28;20064;-61
2022/03/28 09:13:13;;;;;;;25.95;16.23;;;;;;;8.69;78.93;102328.44;5015163;28;20124;-62
2022/03/28 09:15:55;;;;;;;29.73;18.13;;;;;;;8.77;78.90;102326.28;5011915;28;20041;-60
2022/03/28 09:18:27;;;;;;;25.60;17.73;;;;;;;8.94;79.29;102326.28;5010125;28;20041;-61
2022/03/28 09:20:58;;;;;;;26.45;18.45;;;;;;;8.98;77.93;102319.19;5015546;28;20026;-59
2022/03/28 09:23:29;;;;;;;31.67;18.05;;;;;;;9.10;78.39;102307.38;4995993;28;20053;-60
2022/03/28 09:25:56;;;;;;;31.35;19.65;;;;;;;9.17;77.63;102308.72;5014640;28;20025;-65
2022/03/28 09:28:38;;;;;;;30.02;19.30;;;;;;;9.32;78.87;102297.59;4986263;28;20029;-60
2022/03/28 09:31:36;;;;;;;31.13;20.27;;;;;;;9.42;77.79;102292.75;5013089;28;20045;-60
2022/03/28 09:34:12;;;;;;;30.20;19.88;;;;;;;9.49;77.87;102287.16;5014443;28;20029;-61
2022/03/28 09:36:50;;;;;;;29.95;19.30;;;;;;;9.56;76.36;102291.09;5013188;28;20267;-60
2022/03/28 09:39:24;;;;;;;29.92;19.48;;;;;;;9.60;77.06;102280.56;5008218;28;20037;-61
2022/03/28 09:42:19;;;;;;;30.20;19.60;;;;;;;9.78;77.66;102287.34;5007049;28;20087;-60
2022/03/28 09:44:48;;;;;;;31.40;19.67;;;;;;;9.86;76.40;102287.75;5000406;28;20072;-60
2022/03/28 09:47:23;;;;;;;33.30;20.35;;;;;;;10.01;76.23;102291.25;5007946;28;20485;-60
2022/03/28 09:49:52;;;;;;;31.73;21.67;;;;;;;10.18;76.26;102292.91;4989703;28;20038;-60
2022/03/28 09:52:22;;;;;;;;;;;;;;;10.27;76.08;102287.25;4990154;28;20049;-60
2022/03/28 09:54:56;;;;;;;30.17;21.15;;;;;;;10.22;74.28;102284.88;5010816;28;19928;-67
2022/03/28 09:57:32;;;;;;;28.90;21.20;;;;;;;10.40;75.51;102292.56;5027083;28;20111;-63
2022/03/28 10:00:09;;;;;;;31.98;22.85;;;;;;;10.43;74.16;102271.59;5027251;28;20512;-63
2022/03/28 10:02:35;;;;;;;33.80;23.20;;;;;;;10.49;74.69;102272.09;5027175;28;20044;-62
2022/03/28 10:05:01;;;;;;;33.55;23.67;;;;;;;10.53;73.59;102272.75;5026956;28;20029;-64
2022/03/28 10:07:26;;;;;;;32.67;23.80;;;;;;;10.61;74.14;102266.22;5024221;28;20115;-63
2022/03/28 10:09:53;;;;;;;34.83;24.98;;;;;;;10.74;74.63;102262.88;5013786;28;20033;-62
2022/03/28 10:12:21;;;;;;;34.60;24.15;;;;;;;10.70;73.14;102248.41;5011814;28;20022;-62
2022/03/28 10:14:50;;;;;;;34.10;24.25;;;;;;;10.78;71.62;102266.94;5013728;28;20025;-61
2022/03/28 10:17:16;;;;;;;30.83;23.13;;;;;;;10.92;72.22;102253.16;5013861;28;20032;-61
2022/03/28 10:19:43;;;;;;;31.70;23.95;;;;;;;10.95;72.03;102243.41;5014160;28;20025;-60
2022/03/28 10:22:15;;;;;;;34.42;24.13;;;;;;;11.09;71.13;102256.41;5013643;28;20497;-60
2022/03/28 10:24:45;;;;;;;33.65;23.92;;;;;;;11.21;71.10;102257.41;5014230;28;20478;-60
2022/03/28 10:27:12;;;;;;;34.67;23.33;;;;;;;11.25;71.69;102245.09;5012182;28;20044;-66
2022/03/28 10:29:40;;;;;;;31.88;21.92;;;;;;;11.34;72.16;102239.31;5018257;28;20470;-63
2022/03/28 10:32:23;;;;;;;32.15;21.67;;;;;;;11.44;71.65;102240.41;5011760;28;20116;-61
2022/03/28 10:35:04;;;;;;;28.70;20.85;;;;;;;11.46;70.13;102251.53;5013587;28;20042;-60
2022/03/28 10:37:44;;;;;;;31.15;21.90;;;;;;;11.55;70.84;102237.97;4992787;28;20056;-60
2022/03/28 10:40:15;;;;;;;32.53;21.55;;;;;;;11.69;70.41;102240.50;5012662;28;20066;-63
2022/03/28 10:42:46;;;;;;;32.03;21.20;;;;;;;11.70;70.43;102236.19;5013983;28;20216;-64
2022/03/28 10:45:16;;;;;;;29.92;20.77;;;;;;;11.86;70.13;102236.03;5009307;28;20168;-64
2022/03/28 10:47:59;;;;;;;31.13;20.50;;;;;;;11.87;69.54;102232.50;5013635;28;20041;-62
2022/03/28 10:50:33;;;;;;;29.58;21.05;;;;;;;11.93;68.51;102239.94;5014923;28;20553;-63
2022/03/28 10:53:10;;;;;;;28.95;21.25;;;;;;;12.01;69.70;102232.44;5014277;28;20030;-60
2022/03/28 10:55:45;;;;;;;27.60;19.95;;;;;;;12.10;70.53;102233.59;5012911;28;20478;-60
2022/03/28 10:58:20;;;;;;;28.35;20.45;;;;;;;12.11;68.28;102230.94;5013660;28;20073;-61
2022/03/28 11:01:13;;;;;;;29.92;20.00;;;;;;;12.18;68.74;102221.78;5008976;28;20439;-60
2022/03/28 11:04:02;;;;;;;28.17;20.75;;;;;;;12.25;68.33;102210.97;5007295;28;20029;-60
2022/03/28 11:06:46;;;;;;;28.05;20.98;;;;;;;12.39;68.04;102208.28;5024473;28;20124;-63
2022/03/28 11:09:12;;;;;;;28.38;20.95;;;;;;;12.36;67.24;102204.09;5016174;28;20030;-65
2022/03/28 11:12:00;;;;;;;32.63;21.08;;;;;;;12.53;68.21;102189.97;5010916;28;20033;-60
2022/03/28 11:14:50;;;;;;;29.50;20.73;;;;;;;12.68;66.99;102199.34;5010818;28;20104;-60
2022/03/28 11:17:25;;;;;;;29.70;21.15;;;;;;;12.71;66.38;102193.06;5011429;28;20037;-62
2022/03/28 11:19:56;;;;;;;28.75;21.05;;;;;;;12.68;65.39;102186.31;5012325;28;20073;-61
2022/03/28 11:23:06;;;;;;;31.42;22.25;;;;;;;12.81;66.94;102188.06;5015234;28;20528;-60